createdAt,value
2023-04-16T00:02:29.197Z,17.20
2023-04-16T00:05:31.265Z,16.02
2023-04-16T00:08:33.289Z,16.70
2023-04-16T00:11:35.814Z,14.55
2023-04-16T00:14:37.883Z,15.40
2023-04-16T00:17:40.042Z,15.65
2023-04-16T00:20:42.443Z,16.13
2023-04-16T00:23:44.466Z,15.57
2023-04-16T00:26:46.840Z,14.57
2023-04-16T00:29:49.090Z,14.82
2023-04-16T00:32:51.206Z,13.85
2023-04-16T00:35:53.237Z,13.18
2023-04-16T00:38:55.588Z,15.70
2023-04-16T00:41:57.738Z,16.35
2023-04-16T00:44:59.900Z,16.57
2023-04-16T00:48:02.180Z,16.15
2023-04-16T00:51:07.836Z,17.27
2023-04-16T00:54:09.781Z,18.57
2023-04-16T00:57:12.164Z,15.88
2023-04-16T01:00:14.407Z,16.25
2023-04-16T01:03:16.965Z,14.27
2023-04-16T01:06:19.240Z,14.98
2023-04-16T01:09:21.271Z,14.40
2023-04-16T01:12:23.810Z,14.95
2023-04-16T01:15:27.024Z,13.07
2023-04-16T01:18:29.354Z,15.32
2023-04-16T01:21:32.549Z,14.40
2023-04-16T01:24:34.847Z,12.13
2023-04-16T01:27:37.668Z,12.90
2023-04-16T01:30:40.262Z,13.23
2023-04-16T01:33:54.041Z,13.50
2023-04-16T01:36:56.076Z,11.65
2023-04-16T01:39:58.044Z,12.98
2023-04-16T01:43:00.565Z,14.13
2023-04-16T01:46:29.543Z,11.33
2023-04-16T01:49:31.960Z,12.00
2023-04-16T01:52:34.071Z,12.90
2023-04-16T01:55:36.533Z,14.00
2023-04-16T01:58:38.752Z,12.48
2023-04-16T02:01:42.107Z,13.85
2023-04-16T02:04:45.338Z,13.02
2023-04-16T02:07:47.771Z,12.90
2023-04-16T02:10:50.404Z,11.73
2023-04-16T02:13:52.373Z,11.80
2023-04-16T02:16:55.232Z,12.73
2023-04-16T02:20:18.217Z,13.32
2023-04-16T02:23:28.258Z,14.07
2023-04-16T02:26:32.738Z,13.07
2023-04-16T02:29:40.973Z,12.85
2023-04-16T02:32:49.775Z,13.63
2023-04-16T02:35:52.478Z,13.95
2023-04-16T02:38:54.817Z,13.27
2023-04-16T02:41:57.990Z,13.25
2023-04-16T02:45:00.480Z,15.25
2023-04-16T02:48:02.670Z,16.17
2023-04-16T02:51:05.118Z,13.43
2023-04-16T02:54:07.050Z,13.55
2023-04-16T02:57:09.477Z,13.50
2023-04-16T03:00:11.727Z,12.80
2023-04-16T03:03:14.788Z,13.82
2023-04-16T03:06:16.904Z,14.25
2023-04-16T03:09:19.359Z,15.00
2023-04-16T03:12:21.834Z,15.75
2023-04-16T03:15:24.340Z,14.27
2023-04-16T03:18:26.489Z,15.67
2023-04-16T03:21:28.987Z,14.95
2023-04-16T03:24:38.285Z,13.63
2023-04-16T03:27:40.466Z,14.30
2023-04-16T03:30:42.462Z,15.32
2023-04-16T03:33:44.974Z,15.98
2023-04-16T03:36:47.480Z,15.32
2023-04-16T03:39:50.013Z,15.38
2023-04-16T03:42:52.064Z,16.58
2023-04-16T03:45:54.686Z,18.13
2023-04-16T03:48:58.653Z,15.87
2023-04-16T03:52:01.978Z,17.50
2023-04-16T03:55:04.302Z,19.65
2023-04-16T03:58:07.678Z,16.00
2023-04-16T04:01:09.837Z,17.67
2023-04-16T04:04:13.749Z,16.30
2023-04-16T04:07:16.931Z,16.63
2023-04-16T04:10:19.682Z,18.40
2023-04-16T04:13:21.997Z,16.63
2023-04-16T04:16:25.875Z,16.27
2023-04-16T04:19:28.281Z,19.33
2023-04-16T04:22:30.907Z,18.77
2023-04-16T04:25:33.263Z,18.83
2023-04-16T04:28:35.709Z,18.87
2023-04-16T04:31:38.153Z,17.23
2023-04-16T04:34:40.585Z,16.98
2023-04-16T04:37:44.032Z,19.50
2023-04-16T04:40:54.874Z,15.65
2023-04-16T04:43:59.092Z,15.90
2023-04-16T04:47:01.132Z,17.58
2023-04-16T04:50:03.293Z,16.33
2023-04-16T04:53:10.130Z,15.75
2023-04-16T04:56:13.499Z,17.65
2023-04-16T04:59:16.340Z,18.23
2023-04-16T05:02:19.779Z,17.60
2023-04-16T05:05:22.416Z,20.33
2023-04-16T05:08:24.421Z,16.38
2023-04-16T05:11:26.572Z,16.08
2023-04-16T05:14:28.546Z,16.73
2023-04-16T05:17:30.610Z,15.70
2023-04-16T05:20:32.577Z,15.27
2023-04-16T05:23:34.895Z,13.50
2023-04-16T05:26:36.834Z,13.15
2023-04-16T05:29:39.278Z,13.23
2023-04-16T05:32:41.747Z,13.07
2023-04-16T05:35:43.773Z,19.02
2023-04-16T05:38:46.179Z,12.93
2023-04-16T05:41:48.903Z,14.02
2023-04-16T05:44:50.933Z,12.77
2023-04-16T05:47:52.991Z,11.25
2023-04-16T05:50:55.802Z,13.37
2023-04-16T05:53:57.841Z,14.82
2023-04-16T05:57:01.149Z,16.35
2023-04-16T06:00:03.888Z,14.80
2023-04-16T06:03:13.991Z,13.48
2023-04-16T06:06:16.215Z,12.20
2023-04-16T06:09:19.164Z,9.27
2023-04-16T06:12:21.559Z,8.98
2023-04-16T06:15:23.950Z,8.77
2023-04-16T06:18:26.364Z,7.53
2023-04-16T06:21:28.677Z,8.30
2023-04-16T06:24:30.718Z,8.63
2023-04-16T06:27:32.701Z,8.90
2023-04-16T06:30:35.050Z,7.47
2023-04-16T06:33:37.043Z,10.87
2023-04-16T06:36:39.101Z,8.02
2023-04-16T06:39:41.599Z,8.15
2023-04-16T06:42:45.569Z,8.60
2023-04-16T06:45:47.921Z,6.70
2023-04-16T06:48:50.605Z,7.30
2023-04-16T06:51:52.874Z,6.13
2023-04-16T06:54:54.901Z,7.65
2023-04-16T06:57:57.722Z,7.13
2023-04-16T07:01:00.222Z,7.03
2023-04-16T07:04:03.724Z,5.80
2023-04-16T07:07:06.186Z,6.50
2023-04-16T07:10:08.872Z,6.87
2023-04-16T07:13:11.330Z,6.17
2023-04-16T07:16:13.450Z,5.07
2023-04-16T07:19:15.974Z,5.57
2023-04-16T07:22:18.485Z,6.32
2023-04-16T07:25:20.980Z,6.07
2023-04-16T07:28:22.944Z,5.63
2023-04-16T07:31:25.147Z,5.40
2023-04-16T07:34:27.196Z,4.95
2023-04-16T07:37:29.698Z,4.90
2023-04-16T07:40:31.806Z,5.57
2023-04-16T07:43:34.247Z,4.70
2023-04-16T07:46:46.292Z,6.07
2023-04-16T07:49:50.746Z,5.30
2023-04-16T07:52:53.421Z,6.57
2023-04-16T07:55:55.716Z,4.90
2023-04-16T07:59:02.884Z,5.57
2023-04-16T08:02:11.711Z,5.65
2023-04-16T08:05:14.104Z,5.82
2023-04-16T08:08:16.095Z,5.23
2023-04-16T08:11:18.175Z,6.43
2023-04-16T08:14:26.983Z,5.82
2023-04-16T08:17:30.163Z,4.35
2023-04-16T08:20:32.634Z,5.63
2023-04-16T08:23:34.751Z,3.97
2023-04-16T08:26:36.775Z,5.78
2023-04-16T08:29:39.511Z,6.00
2023-04-16T08:32:42.300Z,5.65
2023-04-16T08:35:44.784Z,5.40
2023-04-16T08:38:47.066Z,4.20
2023-04-16T08:41:49.060Z,4.65
2023-04-16T08:44:51.522Z,5.00
2023-04-16T08:47:54.011Z,3.30
2023-04-16T08:50:56.625Z,3.90
2023-04-16T08:54:00.162Z,3.60
2023-04-16T08:57:02.179Z,5.07
2023-04-16T09:00:04.863Z,5.82
2023-04-16T09:03:07.112Z,3.95
2023-04-16T09:06:09.246Z,5.07
2023-04-16T09:09:11.821Z,4.47
2023-04-16T09:12:14.062Z,3.85
2023-04-16T09:15:16.158Z,3.58
2023-04-16T09:18:20.435Z,3.10
2023-04-16T09:21:24.137Z,2.55
2023-04-16T09:24:26.288Z,3.97
2023-04-16T09:27:28.667Z,3.38
2023-04-16T09:30:30.781Z,3.90
2023-04-16T09:33:34.932Z,2.47
2023-04-16T09:36:37.216Z,2.92
2023-04-16T09:39:39.280Z,3.73
2023-04-16T09:42:41.838Z,3.22
2023-04-16T09:45:50.713Z,2.80
2023-04-16T09:48:52.869Z,2.67
2023-04-16T09:51:56.295Z,2.80
2023-04-16T09:54:58.246Z,3.97
2023-04-16T09:58:01.100Z,3.05
2023-04-16T10:01:03.761Z,3.15
2023-04-16T10:04:06.087Z,2.70
2023-04-16T10:07:08.945Z,2.88
2023-04-16T10:10:10.982Z,3.63
2023-04-16T10:13:17.644Z,3.10
2023-04-16T10:16:20.100Z,5.03
2023-04-16T10:19:22.226Z,4.28
2023-04-16T10:22:24.292Z,3.22
2023-04-16T10:25:26.377Z,3.37
2023-04-16T10:28:29.574Z,2.97
2023-04-16T10:31:31.609Z,3.17
2023-04-16T10:34:33.716Z,2.70
2023-04-16T10:37:37.197Z,2.53
2023-04-16T10:40:39.556Z,2.37
2023-04-16T10:43:42.076Z,2.60
2023-04-16T10:46:44.778Z,2.55
2023-04-16T10:49:48.857Z,2.55
2023-04-16T10:53:11.598Z,2.50
2023-04-16T10:56:14.123Z,3.77
2023-04-16T10:59:20.165Z,2.67
2023-04-16T11:02:27.192Z,2.20
2023-04-16T11:05:44.824Z,3.75
2023-04-16T11:08:54.670Z,1.83
2023-04-16T11:11:57.215Z,1.70
2023-04-16T11:15:07.186Z,2.90
2023-04-16T11:18:09.880Z,1.42
2023-04-16T11:21:12.778Z,1.40
2023-04-16T11:24:15.586Z,1.60
2023-04-16T11:27:17.685Z,1.13
2023-04-16T11:30:28.102Z,1.75
2023-04-16T11:33:31.469Z,1.35
2023-04-16T11:36:43.219Z,1.20
2023-04-16T11:39:49.377Z,1.63
2023-04-16T11:42:52.756Z,2.80
2023-04-16T11:46:07.519Z,8.65
2023-04-16T11:49:17.628Z,1.50
2023-04-16T11:52:27.590Z,1.30
2023-04-16T11:55:29.959Z,1.35
2023-04-16T11:58:32.019Z,1.73
2023-04-16T12:01:34.645Z,1.70
2023-04-16T12:04:37.649Z,2.30
2023-04-16T12:07:48.727Z,1.35
2023-04-16T12:10:54.197Z,1.55
2023-04-16T12:14:12.054Z,1.17
2023-04-16T12:17:20.801Z,1.17
2023-04-16T12:20:23.080Z,1.55
2023-04-16T12:23:28.928Z,1.25
2023-04-16T12:26:41.433Z,2.35
2023-04-16T12:29:43.546Z,1.57
2023-04-16T12:32:46.684Z,1.05
2023-04-16T12:35:48.741Z,3.55
2023-04-16T12:38:51.098Z,1.27
2023-04-16T12:42:00.050Z,0.80
2023-04-16T12:45:08.615Z,1.03
2023-04-16T12:48:11.559Z,3.10
2023-04-16T12:51:13.976Z,1.15
2023-04-16T12:54:16.606Z,1.95
2023-04-16T12:57:18.816Z,1.63
2023-04-16T13:00:21.350Z,0.70
2023-04-16T13:03:23.569Z,0.93
2023-04-16T13:06:26.321Z,2.03
2023-04-16T13:09:28.737Z,0.85
2023-04-16T13:12:31.066Z,2.00
2023-04-16T13:15:33.245Z,0.93
2023-04-16T13:18:36.475Z,1.38
2023-04-16T13:21:38.901Z,1.10
2023-04-16T13:24:41.166Z,2.33
2023-04-16T13:27:43.601Z,1.70
2023-04-16T13:30:46.971Z,1.23
2023-04-16T13:33:48.937Z,1.58
2023-04-16T13:36:50.930Z,2.10
2023-04-16T13:39:53.428Z,1.17
2023-04-16T13:42:56.068Z,1.13
2023-04-16T13:45:58.753Z,2.37
2023-04-16T13:49:01.405Z,1.65
2023-04-16T13:52:03.951Z,2.67
2023-04-16T13:55:06.638Z,1.15
2023-04-16T13:58:08.709Z,2.30
2023-04-16T14:01:11.612Z,1.63
2023-04-16T14:04:14.208Z,1.60
2023-04-16T14:07:16.514Z,1.98
2023-04-16T14:10:18.967Z,1.90
2023-04-16T14:13:20.959Z,2.13
2023-04-16T14:16:23.489Z,2.60
2023-04-16T14:19:25.973Z,2.58
2023-04-16T14:22:27.964Z,1.60
2023-04-16T14:25:31.022Z,2.03
2023-04-16T14:28:33.060Z,3.15
2023-04-16T14:31:35.121Z,1.83
2023-04-16T14:34:37.119Z,1.30
2023-04-16T14:37:39.177Z,2.67
2023-04-16T14:40:41.448Z,2.13
2023-04-16T14:43:44.490Z,1.45
2023-04-16T14:46:46.947Z,1.17
2023-04-16T14:49:49.280Z,2.45
2023-04-16T14:52:53.732Z,2.22
2023-04-16T14:55:58.988Z,1.30
2023-04-16T14:59:01.555Z,1.85
2023-04-16T15:02:04.292Z,1.40
2023-04-16T15:05:09.773Z,1.83
2023-04-16T15:08:12.277Z,2.17
2023-04-16T15:11:14.291Z,1.30
2023-04-16T15:14:16.840Z,1.50
2023-04-16T15:17:20.759Z,2.57
2023-04-16T15:20:23.301Z,1.08
2023-04-16T15:23:25.708Z,3.22
2023-04-16T15:26:27.970Z,2.25
2023-04-16T15:29:30.336Z,1.75
2023-04-16T15:32:32.385Z,1.93
2023-04-16T15:35:38.974Z,2.60
2023-04-16T15:38:41.901Z,2.25
2023-04-16T15:41:57.542Z,4.50
2023-04-16T15:45:02.765Z,2.78
2023-04-16T15:48:06.123Z,2.97
2023-04-16T15:51:08.578Z,1.60
2023-04-16T15:54:10.487Z,1.42
2023-04-16T15:57:12.453Z,1.80
2023-04-16T16:00:17.171Z,2.75
2023-04-16T16:03:19.705Z,3.33
2023-04-16T16:06:22.447Z,3.13
2023-04-16T16:09:28.013Z,1.67
2023-04-16T16:12:30.549Z,1.20
2023-04-16T16:15:32.903Z,1.90
2023-04-16T16:18:37.075Z,3.83
2023-04-16T16:21:39.088Z,2.58
2023-04-16T16:24:41.462Z,2.03
2023-04-16T16:27:43.438Z,3.15
2023-04-16T16:30:47.031Z,2.00
2023-04-16T16:33:49.469Z,2.53
2023-04-16T16:36:51.455Z,8.52
2023-04-16T16:39:53.862Z,2.80
2023-04-16T16:42:56.128Z,2.28
2023-04-16T16:45:58.284Z,2.15
2023-04-16T16:49:00.438Z,3.23
2023-04-16T16:52:02.450Z,1.83
2023-04-16T16:55:05.212Z,3.45
2023-04-16T16:58:07.257Z,1.85
2023-04-16T17:01:09.809Z,1.55
2023-04-16T17:04:12.048Z,3.40
2023-04-16T17:07:14.558Z,2.95
2023-04-16T17:10:20.395Z,2.38
2023-04-16T17:13:23.705Z,2.03
2023-04-16T17:16:25.954Z,2.47
2023-04-16T17:19:28.522Z,2.70
2023-04-16T17:22:30.669Z,3.58
2023-04-16T17:25:32.667Z,2.97
2023-04-16T17:28:35.104Z,2.95
2023-04-16T17:31:37.781Z,2.58
2023-04-16T17:34:39.864Z,2.20
2023-04-16T17:37:42.377Z,2.90
2023-04-16T17:40:44.846Z,4.07
2023-04-16T17:43:47.801Z,2.70
2023-04-16T17:46:50.490Z,3.25
2023-04-16T17:49:53.893Z,3.60
2023-04-16T17:52:58.129Z,5.30
2023-04-16T17:56:00.546Z,4.13
2023-04-16T17:59:02.534Z,4.90
2023-04-16T18:02:04.649Z,5.28
2023-04-16T18:05:07.367Z,3.90
2023-04-16T18:08:09.610Z,3.30
2023-04-16T18:11:11.809Z,3.85
2023-04-16T18:14:16.893Z,3.88
2023-04-16T18:17:21.878Z,2.85
2023-04-16T18:20:23.936Z,2.73
2023-04-16T18:23:26.089Z,3.08
2023-04-16T18:26:29.958Z,4.22
2023-04-16T18:29:33.878Z,4.15
2023-04-16T18:32:37.570Z,3.38
2023-04-16T18:35:40.673Z,3.60
2023-04-16T18:38:57.083Z,4.45
2023-04-16T18:42:03.975Z,3.67
2023-04-16T18:48:11.472Z,3.17
2023-04-16T18:51:15.963Z,4.40
2023-04-16T18:54:19.960Z,2.55
2023-04-16T18:57:21.982Z,4.22
2023-04-16T19:00:24.156Z,2.78
2023-04-16T19:03:27.417Z,7.15
2023-04-16T19:06:29.967Z,5.70
2023-04-16T19:09:32.177Z,3.97
2023-04-16T19:12:34.269Z,5.70
2023-04-16T19:15:36.443Z,4.75
2023-04-16T19:18:38.563Z,5.07
2023-04-16T19:21:41.303Z,5.47
2023-04-16T19:24:43.289Z,4.82
2023-04-16T19:27:45.395Z,7.38
2023-04-16T19:30:49.638Z,4.25
2023-04-16T19:33:51.637Z,5.15
2023-04-16T19:36:53.796Z,4.90
2023-04-16T19:39:55.966Z,3.97
2023-04-16T19:42:57.983Z,4.55
2023-04-16T19:46:00.272Z,4.50
2023-04-16T19:49:06.030Z,3.85
2023-04-16T19:52:08.510Z,4.40
2023-04-16T19:55:10.686Z,4.00
2023-04-16T19:58:14.481Z,4.10
2023-04-16T20:01:16.610Z,6.05
2023-04-16T20:04:18.727Z,3.80
2023-04-16T20:07:21.466Z,2.63
2023-04-16T20:10:24.056Z,3.50
2023-04-16T20:13:26.315Z,3.42
2023-04-16T20:16:28.815Z,4.72
2023-04-16T20:19:34.133Z,2.70
2023-04-16T20:22:36.557Z,2.53
2023-04-16T20:25:42.902Z,3.15
2023-04-16T20:28:45.649Z,2.60
2023-04-16T20:31:48.735Z,2.88
2023-04-16T20:34:50.729Z,3.15
2023-04-16T20:37:52.831Z,2.80
2023-04-16T20:41:10.470Z,4.05
2023-04-16T20:44:18.182Z,2.95
2023-04-16T20:47:22.196Z,4.70
2023-04-16T20:50:24.799Z,3.63
2023-04-16T20:53:27.126Z,3.37
2023-04-16T20:56:31.214Z,2.60
2023-04-16T20:59:33.784Z,3.05
2023-04-16T21:02:36.229Z,2.45
2023-04-16T21:05:38.672Z,3.35
2023-04-16T21:08:41.021Z,3.20
2023-04-16T21:11:43.132Z,2.15
2023-04-16T21:14:45.163Z,3.80
2023-04-16T21:17:47.100Z,3.40
2023-04-16T21:20:49.259Z,3.15
2023-04-16T21:23:51.921Z,2.83
2023-04-16T21:26:53.914Z,3.28
2023-04-16T21:29:56.576Z,4.85
2023-04-16T21:32:58.567Z,2.40
2023-04-16T21:36:00.787Z,2.55
2023-04-16T21:39:02.857Z,2.87
2023-04-16T21:42:04.910Z,3.30
2023-04-16T21:45:09.711Z,2.80
2023-04-16T21:48:12.048Z,3.10
2023-04-16T21:51:14.256Z,3.22
2023-04-16T21:54:18.627Z,2.47
2023-04-16T21:57:20.618Z,3.58
2023-04-16T22:00:22.609Z,3.53
2023-04-16T22:03:28.164Z,2.15
2023-04-16T22:06:30.449Z,2.38
2023-04-16T22:09:32.999Z,2.10
2023-04-16T22:12:37.960Z,2.70
2023-04-16T22:15:40.229Z,2.40
2023-04-16T22:18:42.864Z,3.28
2023-04-16T22:21:44.980Z,3.13
2023-04-16T22:24:46.984Z,2.80
2023-04-16T22:27:49.168Z,2.75
2023-04-16T22:30:51.635Z,2.15
2023-04-16T22:33:54.005Z,2.33
2023-04-16T22:36:56.369Z,3.42
2023-04-16T22:39:58.715Z,2.80
2023-04-16T22:43:01.076Z,2.33
2023-04-16T22:46:09.639Z,2.78
2023-04-16T22:49:11.903Z,2.70
2023-04-16T22:52:14.087Z,2.95
2023-04-16T22:55:16.151Z,2.57
2023-04-16T22:58:18.109Z,2.70
2023-04-16T23:01:20.146Z,2.67
2023-04-16T23:04:22.650Z,3.53
2023-04-16T23:07:24.778Z,2.28
2023-04-16T23:10:27.544Z,2.40
2023-04-16T23:13:29.563Z,2.40
2023-04-16T23:16:31.546Z,2.28
2023-04-16T23:19:33.522Z,2.17
2023-04-16T23:22:36.126Z,3.35
2023-04-16T23:25:39.189Z,3.53
2023-04-16T23:28:41.491Z,3.10
2023-04-16T23:31:43.572Z,3.53
2023-04-16T23:34:45.822Z,1.90
2023-04-16T23:37:47.886Z,3.67
2023-04-16T23:40:50.612Z,2.80
2023-04-16T23:43:52.930Z,3.88
2023-04-16T23:46:55.025Z,2.53
2023-04-16T23:49:57.502Z,3.53
2023-04-16T23:53:00.028Z,2.50
2023-04-16T23:56:02.425Z,2.30
2023-04-16T23:59:04.407Z,2.83
